Portada
METAR-TAF:

METAR-TAF

Aeroports :

Djanet, Algèria

latitud: 24-33N, longitud: 009-28E, altitud: 1054 m

Observació

L'informe es va fer fa 1 hora i 2 minuts, a les 18:00 UTC
Vent 6 kt del Sud/Sud-Oest
Temperatura 28°C
Humitat 15%
Pressió 1017 hPa
Visibilitat 10 km o més
sense núvols per sota de 1500 mi sense presència de cumulonimbus.

METAR: DAAJ 181800Z 20006KT CAVOK 28/M01 Q1017

Hora: 20:02 (19:02 UTC)

Pronòstic

L'informe es va fer fa 2 hores i 2 minuts, a les 17:00 UTC
Pronòstic vàlid del 18 a les 18 UTC al 19 a les 18 UTC
Vent 8 kt del Sud/Sud-Est
Visibilitat 10 km o més
sense núvols per sota de 1500 mi sense presència de cumulonimbus.

TAF: DAAJ 181700Z 1818/1918 16008KT CAVOK

Observacions i pronòstics meteorològics de més de 4000 aeroports (METAR i TAF).

Les estacions disponibles són els punts grocs i vermells al mapa.

Posi el ratolí al punt desitjat per veure el nom de l'estació.

Feu clic per veure les observacions i els pronòstics meteorològics.

Per canviar el mapa: feu clic els botons verds amb una creu de color negre per apropar; al botó verd amb un guió per allunyar la imatge; o en les fletxes verdes per a mapes adjacents.


METAR-TAF: